Main page
METAR-TAF:

Airports :

Podgorica, Montenegro

Podgorica Airport

latitude: 42-26N, longitude: 019-17E, elevation: 53 m

Current weather observation

The report was made 10 minutes ago, at 17:30 UTC
Wind 6 kt from the Southeast, varying between East and South/Southeast
Temperature 29°C
Humidity 52%
Pressure 1014 hPa
Visibility 10 km or more
Few clouds at a height of 5000 ft
Scattered clouds at a height of 10000 ft

METAR: LYPG 301730Z 14006KT 100V160 9999 FEW050 SCT100 29/18 Q1014 NOSIG

Time: 19:40 (17:40 UTC)

Forecast

The report was made 40 minutes ago, at 17:00 UTC
Forecast valid from 30 at 18 UTC to 01 at 18 UTC
Wind 5 kt from the North
Visibility 10 km or more
no clouds below 1500 m and no cumulonimbus

TAF: LYPG 301700Z 3018/0118 36005KT CAVOK TX33/0113Z TN19/0103Z

METAR-TAF

Weather observations and forecasts of more than 4000 airports (METAR and TAF reports).

The available stations are represented by yellow and red dots on the map.

Hover mouse over dot to see the name of the station.

Then click to see weather observations and forecasts.

To change the map : click on the green buttons with a black cross to zoom in, on the green button with a dash to zoom out, or on the green arrows for adjacent maps.


METAR-TAF: